sensor_id;sensor_type;location;lat;lon;timestamp;P1;durP1;ratioP1;P2;durP2;ratioP2
49458;SDS011;35354;51.296;16.924;2023-04-07T00:01:18;23.50;;;16.50;;
49458;SDS011;35354;51.296;16.924;2023-04-07T00:03:43;26.98;;;17.55;;
49458;SDS011;35354;51.296;16.924;2023-04-07T00:06:08;28.33;;;17.98;;
49458;SDS011;35354;51.296;16.924;2023-04-07T00:08:34;26.75;;;18.42;;
49458;SDS011;35354;51.296;16.924;2023-04-07T00:10:59;29.10;;;19.02;;
49458;SDS011;35354;51.296;16.924;2023-04-07T00:13:25;23.70;;;17.45;;
49458;SDS011;35354;51.296;16.924;2023-04-07T00:15:51;29.88;;;18.90;;
49458;SDS011;35354;51.296;16.924;2023-04-07T00:18:16;27.88;;;19.48;;
49458;SDS011;35354;51.296;16.924;2023-04-07T00:20:41;23.83;;;18.15;;
49458;SDS011;35354;51.296;16.924;2023-04-07T00:23:07;26.70;;;18.00;;
49458;SDS011;35354;51.296;16.924;2023-04-07T00:25:32;27.58;;;18.92;;
49458;SDS011;35354;51.296;16.924;2023-04-07T00:27:57;24.63;;;17.52;;
49458;SDS011;35354;51.296;16.924;2023-04-07T00:30:22;27.58;;;18.65;;
49458;SDS011;35354;51.296;16.924;2023-04-07T00:32:48;28.73;;;19.85;;
49458;SDS011;35354;51.296;16.924;2023-04-07T00:35:15;32.08;;;20.08;;
49458;SDS011;35354;51.296;16.924;2023-04-07T00:37:40;29.10;;;19.30;;
49458;SDS011;35354;51.296;16.924;2023-04-07T00:40:06;29.02;;;21.45;;
49458;SDS011;35354;51.296;16.924;2023-04-07T00:42:32;26.77;;;19.17;;
49458;SDS011;35354;51.296;16.924;2023-04-07T00:44:57;30.98;;;19.63;;
49458;SDS011;35354;51.296;16.924;2023-04-07T00:47:22;26.27;;;19.35;;
49458;SDS011;35354;51.296;16.924;2023-04-07T00:49:48;23.83;;;18.83;;
49458;SDS011;35354;51.296;16.924;2023-04-07T00:52:13;30.10;;;21.25;;
49458;SDS011;35354;51.296;16.924;2023-04-07T00:54:40;28.95;;;20.15;;
49458;SDS011;35354;51.296;16.924;2023-04-07T00:57:06;25.33;;;19.23;;
49458;SDS011;35354;51.296;16.924;2023-04-07T00:59:32;31.63;;;21.83;;
49458;SDS011;35354;51.296;16.924;2023-04-07T01:02:07;28.95;;;20.85;;
49458;SDS011;35354;51.296;16.924;2023-04-07T01:04:45;28.27;;;20.77;;
49458;SDS011;35354;51.296;16.924;2023-04-07T01:07:17;31.02;;;20.23;;
49458;SDS011;35354;51.296;16.924;2023-04-07T01:09:47;28.52;;;19.33;;
49458;SDS011;35354;51.296;16.924;2023-04-07T01:12:33;29.33;;;20.80;;
49458;SDS011;35354;51.296;16.924;2023-04-07T01:15:09;32.85;;;21.35;;
49458;SDS011;35354;51.296;16.924;2023-04-07T01:17:37;27.95;;;20.27;;
49458;SDS011;35354;51.296;16.924;2023-04-07T01:20:07;25.88;;;20.73;;
49458;SDS011;35354;51.296;16.924;2023-04-07T01:25:16;28.60;;;19.88;;
49458;SDS011;35354;51.296;16.924;2023-04-07T01:30:39;32.42;;;22.88;;
49458;SDS011;35354;51.296;16.924;2023-04-07T01:33:09;31.85;;;20.95;;
49458;SDS011;35354;51.296;16.924;2023-04-07T01:35:36;30.00;;;22.00;;
49458;SDS011;35354;51.296;16.924;2023-04-07T01:38:04;28.38;;;22.10;;
49458;SDS011;35354;51.296;16.924;2023-04-07T01:40:31;29.95;;;22.60;;
49458;SDS011;35354;51.296;16.924;2023-04-07T01:42:58;29.73;;;24.02;;
49458;SDS011;35354;51.296;16.924;2023-04-07T01:45:25;37.55;;;25.52;;
49458;SDS011;35354;51.296;16.924;2023-04-07T01:47:52;35.10;;;24.35;;
49458;SDS011;35354;51.296;16.924;2023-04-07T01:50:18;33.15;;;23.95;;
49458;SDS011;35354;51.296;16.924;2023-04-07T01:52:45;32.45;;;24.50;;
49458;SDS011;35354;51.296;16.924;2023-04-07T01:55:11;28.27;;;23.60;;
49458;SDS011;35354;51.296;16.924;2023-04-07T01:57:38;29.90;;;22.80;;
49458;SDS011;35354;51.296;16.924;2023-04-07T02:00:03;34.60;;;26.20;;
49458;SDS011;35354;51.296;16.924;2023-04-07T02:02:30;33.40;;;25.50;;
49458;SDS011;35354;51.296;16.924;2023-04-07T02:05:01;38.40;;;27.65;;
49458;SDS011;35354;51.296;16.924;2023-04-07T02:07:38;31.98;;;24.52;;
49458;SDS011;35354;51.296;16.924;2023-04-07T02:10:08;38.55;;;27.08;;
49458;SDS011;35354;51.296;16.924;2023-04-07T02:12:36;35.83;;;26.23;;
49458;SDS011;35354;51.296;16.924;2023-04-07T02:15:03;35.45;;;25.13;;
49458;SDS011;35354;51.296;16.924;2023-04-07T02:17:30;34.22;;;25.40;;
49458;SDS011;35354;51.296;16.924;2023-04-07T02:19:58;32.35;;;25.08;;
49458;SDS011;35354;51.296;16.924;2023-04-07T02:22:26;35.80;;;27.17;;
49458;SDS011;35354;51.296;16.924;2023-04-07T02:24:52;39.90;;;26.70;;
49458;SDS011;35354;51.296;16.924;2023-04-07T02:27:18;35.55;;;26.17;;
49458;SDS011;35354;51.296;16.924;2023-04-07T02:29:44;37.40;;;26.80;;
49458;SDS011;35354;51.296;16.924;2023-04-07T02:32:09;36.95;;;27.08;;
49458;SDS011;35354;51.296;16.924;2023-04-07T02:34:35;36.33;;;27.67;;
49458;SDS011;35354;51.296;16.924;2023-04-07T02:37:00;34.55;;;26.25;;
49458;SDS011;35354;51.296;16.924;2023-04-07T02:39:26;39.00;;;28.65;;
49458;SDS011;35354;51.296;16.924;2023-04-07T02:41:51;34.67;;;26.75;;
49458;SDS011;35354;51.296;16.924;2023-04-07T02:44:16;33.80;;;26.77;;
49458;SDS011;35354;51.296;16.924;2023-04-07T02:46:42;32.83;;;24.92;;
49458;SDS011;35354;51.296;16.924;2023-04-07T02:49:07;35.15;;;26.45;;
49458;SDS011;35354;51.296;16.924;2023-04-07T02:51:32;37.30;;;26.67;;
49458;SDS011;35354;51.296;16.924;2023-04-07T02:53:57;35.53;;;25.90;;
49458;SDS011;35354;51.296;16.924;2023-04-07T02:56:23;32.70;;;23.65;;
49458;SDS011;35354;51.296;16.924;2023-04-07T02:58:48;35.53;;;25.75;;
49458;SDS011;35354;51.296;16.924;2023-04-07T03:01:13;31.52;;;21.98;;
49458;SDS011;35354;51.296;16.924;2023-04-07T03:03:39;30.77;;;23.65;;
49458;SDS011;35354;51.296;16.924;2023-04-07T03:06:06;29.77;;;23.92;;
49458;SDS011;35354;51.296;16.924;2023-04-07T03:08:31;30.92;;;23.40;;
49458;SDS011;35354;51.296;16.924;2023-04-07T03:10:57;38.45;;;25.85;;
49458;SDS011;35354;51.296;16.924;2023-04-07T03:13:22;34.20;;;24.33;;
49458;SDS011;35354;51.296;16.924;2023-04-07T03:15:48;31.52;;;23.85;;
49458;SDS011;35354;51.296;16.924;2023-04-07T03:18:13;30.92;;;22.33;;
49458;SDS011;35354;51.296;16.924;2023-04-07T03:20:38;32.05;;;23.17;;
49458;SDS011;35354;51.296;16.924;2023-04-07T03:23:06;33.42;;;23.23;;
49458;SDS011;35354;51.296;16.924;2023-04-07T03:25:31;32.30;;;22.52;;
49458;SDS011;35354;51.296;16.924;2023-04-07T03:27:57;30.85;;;23.23;;
49458;SDS011;35354;51.296;16.924;2023-04-07T03:30:22;30.38;;;22.40;;
49458;SDS011;35354;51.296;16.924;2023-04-07T03:32:47;31.10;;;23.88;;
49458;SDS011;35354;51.296;16.924;2023-04-07T03:35:13;30.73;;;23.25;;
49458;SDS011;35354;51.296;16.924;2023-04-07T03:37:38;26.10;;;20.15;;
49458;SDS011;35354;51.296;16.924;2023-04-07T03:40:03;29.30;;;20.98;;
49458;SDS011;35354;51.296;16.924;2023-04-07T03:42:29;30.60;;;20.63;;
49458;SDS011;35354;51.296;16.924;2023-04-07T03:44:54;28.08;;;20.88;;
49458;SDS011;35354;51.296;16.924;2023-04-07T03:47:20;23.63;;;18.50;;
49458;SDS011;35354;51.296;16.924;2023-04-07T03:49:46;26.67;;;19.38;;
49458;SDS011;35354;51.296;16.924;2023-04-07T03:52:11;25.13;;;18.50;;
49458;SDS011;35354;51.296;16.924;2023-04-07T03:54:37;27.88;;;18.08;;
49458;SDS011;35354;51.296;16.924;2023-04-07T03:57:02;24.80;;;17.98;;
49458;SDS011;35354;51.296;16.924;2023-04-07T03:59:27;23.92;;;17.85;;
49458;SDS011;35354;51.296;16.924;2023-04-07T04:01:53;25.15;;;18.05;;
49458;SDS011;35354;51.296;16.924;2023-04-07T04:04:18;25.65;;;17.52;;
49458;SDS011;35354;51.296;16.924;2023-04-07T04:06:43;28.80;;;17.45;;
49458;SDS011;35354;51.296;16.924;2023-04-07T04:09:09;25.33;;;17.45;;
49458;SDS011;35354;51.296;16.924;2023-04-07T04:11:34;23.50;;;17.48;;
49458;SDS011;35354;51.296;16.924;2023-04-07T04:14:00;26.13;;;18.30;;
49458;SDS011;35354;51.296;16.924;2023-04-07T04:16:25;26.27;;;17.92;;
49458;SDS011;35354;51.296;16.924;2023-04-07T04:18:51;26.05;;;18.23;;
49458;SDS011;35354;51.296;16.924;2023-04-07T04:21:16;26.02;;;17.73;;
49458;SDS011;35354;51.296;16.924;2023-04-07T04:23:41;28.80;;;20.02;;
49458;SDS011;35354;51.296;16.924;2023-04-07T04:26:07;27.20;;;18.52;;
49458;SDS011;35354;51.296;16.924;2023-04-07T04:28:32;26.30;;;18.95;;
49458;SDS011;35354;51.296;16.924;2023-04-07T04:30:57;53.95;;;35.83;;
49458;SDS011;35354;51.296;16.924;2023-04-07T04:33:23;36.15;;;26.02;;
49458;SDS011;35354;51.296;16.924;2023-04-07T04:35:48;29.48;;;20.80;;
49458;SDS011;35354;51.296;16.924;2023-04-07T04:38:13;30.38;;;19.23;;
49458;SDS011;35354;51.296;16.924;2023-04-07T04:40:40;37.15;;;22.15;;
49458;SDS011;35354;51.296;16.924;2023-04-07T04:43:06;32.88;;;20.65;;
49458;SDS011;35354;51.296;16.924;2023-04-07T04:45:31;30.33;;;20.30;;
49458;SDS011;35354;51.296;16.924;2023-04-07T04:47:57;25.83;;;19.60;;
49458;SDS011;35354;51.296;16.924;2023-04-07T04:50:22;30.52;;;21.95;;
49458;SDS011;35354;51.296;16.924;2023-04-07T04:52:48;30.45;;;21.52;;
49458;SDS011;35354;51.296;16.924;2023-04-07T04:55:13;32.13;;;22.75;;
49458;SDS011;35354;51.296;16.924;2023-04-07T04:57:38;28.20;;;21.65;;
49458;SDS011;35354;51.296;16.924;2023-04-07T05:00:05;28.88;;;20.92;;
49458;SDS011;35354;51.296;16.924;2023-04-07T05:02:32;30.45;;;21.55;;
49458;SDS011;35354;51.296;16.924;2023-04-07T05:04:57;28.75;;;20.60;;
49458;SDS011;35354;51.296;16.924;2023-04-07T05:07:22;36.47;;;26.50;;
49458;SDS011;35354;51.296;16.924;2023-04-07T05:09:48;32.30;;;23.67;;
49458;SDS011;35354;51.296;16.924;2023-04-07T05:12:14;27.83;;;20.45;;
49458;SDS011;35354;51.296;16.924;2023-04-07T05:14:39;30.60;;;20.30;;
49458;SDS011;35354;51.296;16.924;2023-04-07T05:17:05;28.20;;;19.33;;
49458;SDS011;35354;51.296;16.924;2023-04-07T05:19:30;27.23;;;20.75;;
49458;SDS011;35354;51.296;16.924;2023-04-07T05:21:56;28.98;;;21.70;;
49458;SDS011;35354;51.296;16.924;2023-04-07T05:24:22;32.22;;;23.77;;
49458;SDS011;35354;51.296;16.924;2023-04-07T05:26:47;32.63;;;23.02;;
49458;SDS011;35354;51.296;16.924;2023-04-07T05:29:12;28.60;;;21.05;;
49458;SDS011;35354;51.296;16.924;2023-04-07T05:31:37;41.60;;;26.02;;
49458;SDS011;35354;51.296;16.924;2023-04-07T05:34:04;51.33;;;29.02;;
49458;SDS011;35354;51.296;16.924;2023-04-07T05:36:29;40.15;;;26.17;;
49458;SDS011;35354;51.296;16.924;2023-04-07T05:38:55;35.72;;;24.70;;
49458;SDS011;35354;51.296;16.924;2023-04-07T05:41:21;27.58;;;19.33;;
49458;SDS011;35354;51.296;16.924;2023-04-07T05:43:46;34.83;;;21.58;;
49458;SDS011;35354;51.296;16.924;2023-04-07T05:46:11;31.67;;;21.38;;
49458;SDS011;35354;51.296;16.924;2023-04-07T05:48:37;31.13;;;22.92;;
49458;SDS011;35354;51.296;16.924;2023-04-07T05:51:02;30.48;;;21.52;;
49458;SDS011;35354;51.296;16.924;2023-04-07T05:53:27;28.95;;;20.10;;
49458;SDS011;35354;51.296;16.924;2023-04-07T05:55:53;26.33;;;20.70;;
49458;SDS011;35354;51.296;16.924;2023-04-07T05:58:18;29.42;;;21.10;;
49458;SDS011;35354;51.296;16.924;2023-04-07T06:00:44;26.30;;;20.58;;
49458;SDS011;35354;51.296;16.924;2023-04-07T06:03:09;27.33;;;20.02;;
49458;SDS011;35354;51.296;16.924;2023-04-07T06:05:35;30.77;;;21.00;;
49458;SDS011;35354;51.296;16.924;2023-04-07T06:08:00;28.25;;;20.83;;
49458;SDS011;35354;51.296;16.924;2023-04-07T06:10:25;27.40;;;19.98;;
49458;SDS011;35354;51.296;16.924;2023-04-07T06:12:51;39.17;;;26.67;;
49458;SDS011;35354;51.296;16.924;2023-04-07T06:15:16;37.63;;;24.92;;
49458;SDS011;35354;51.296;16.924;2023-04-07T06:17:41;39.35;;;23.98;;
49458;SDS011;35354;51.296;16.924;2023-04-07T06:20:09;43.75;;;25.85;;
49458;SDS011;35354;51.296;16.924;2023-04-07T06:22:35;37.30;;;24.98;;
49458;SDS011;35354;51.296;16.924;2023-04-07T06:25:01;51.63;;;28.17;;
49458;SDS011;35354;51.296;16.924;2023-04-07T06:27:26;40.42;;;25.55;;
49458;SDS011;35354;51.296;16.924;2023-04-07T06:29:52;25.40;;;20.48;;
49458;SDS011;35354;51.296;16.924;2023-04-07T06:32:17;30.38;;;21.92;;
49458;SDS011;35354;51.296;16.924;2023-04-07T06:34:43;36.05;;;23.27;;
49458;SDS011;35354;51.296;16.924;2023-04-07T06:37:08;30.08;;;21.08;;
49458;SDS011;35354;51.296;16.924;2023-04-07T06:39:33;33.08;;;20.65;;
49458;SDS011;35354;51.296;16.924;2023-04-07T06:41:59;34.72;;;23.23;;
49458;SDS011;35354;51.296;16.924;2023-04-07T06:44:25;25.00;;;19.52;;
49458;SDS011;35354;51.296;16.924;2023-04-07T06:46:51;28.10;;;21.27;;
49458;SDS011;35354;51.296;16.924;2023-04-07T06:49:17;28.88;;;21.70;;
49458;SDS011;35354;51.296;16.924;2023-04-07T06:51:43;25.65;;;19.45;;
49458;SDS011;35354;51.296;16.924;2023-04-07T06:54:08;26.60;;;20.15;;
49458;SDS011;35354;51.296;16.924;2023-04-07T06:56:37;24.38;;;18.83;;
49458;SDS011;35354;51.296;16.924;2023-04-07T06:59:03;25.33;;;19.15;;
49458;SDS011;35354;51.296;16.924;2023-04-07T07:01:29;26.70;;;19.00;;
49458;SDS011;35354;51.296;16.924;2023-04-07T07:03:54;36.78;;;21.92;;
49458;SDS011;35354;51.296;16.924;2023-04-07T07:06:20;29.70;;;22.10;;
49458;SDS011;35354;51.296;16.924;2023-04-07T07:08:45;30.02;;;22.73;;
49458;SDS011;35354;51.296;16.924;2023-04-07T07:11:10;28.90;;;22.10;;
49458;SDS011;35354;51.296;16.924;2023-04-07T07:13:35;45.38;;;27.85;;
49458;SDS011;35354;51.296;16.924;2023-04-07T07:16:01;40.60;;;25.33;;
49458;SDS011;35354;51.296;16.924;2023-04-07T07:18:26;30.80;;;22.05;;
49458;SDS011;35354;51.296;16.924;2023-04-07T07:20:52;28.40;;;19.92;;
49458;SDS011;35354;51.296;16.924;2023-04-07T07:23:17;27.48;;;19.13;;
49458;SDS011;35354;51.296;16.924;2023-04-07T07:25:42;27.33;;;19.80;;
49458;SDS011;35354;51.296;16.924;2023-04-07T07:28:07;26.13;;;18.50;;
49458;SDS011;35354;51.296;16.924;2023-04-07T07:30:33;23.23;;;18.75;;
49458;SDS011;35354;51.296;16.924;2023-04-07T07:32:59;26.08;;;19.58;;
49458;SDS011;35354;51.296;16.924;2023-04-07T07:35:24;23.50;;;17.52;;
49458;SDS011;35354;51.296;16.924;2023-04-07T07:37:50;26.33;;;19.90;;
49458;SDS011;35354;51.296;16.924;2023-04-07T07:40:16;24.83;;;18.98;;
49458;SDS011;35354;51.296;16.924;2023-04-07T07:42:41;28.05;;;19.65;;
49458;SDS011;35354;51.296;16.924;2023-04-07T07:45:07;27.92;;;19.50;;
49458;SDS011;35354;51.296;16.924;2023-04-07T07:47:32;29.25;;;19.08;;
49458;SDS011;35354;51.296;16.924;2023-04-07T07:49:58;23.02;;;17.45;;
49458;SDS011;35354;51.296;16.924;2023-04-07T07:52:23;24.92;;;19.00;;
49458;SDS011;35354;51.296;16.924;2023-04-07T07:54:49;27.92;;;19.48;;
49458;SDS011;35354;51.296;16.924;2023-04-07T07:57:15;25.42;;;18.60;;
49458;SDS011;35354;51.296;16.924;2023-04-07T07:59:40;25.02;;;18.08;;
49458;SDS011;35354;51.296;16.924;2023-04-07T08:02:06;26.55;;;17.58;;
49458;SDS011;35354;51.296;16.924;2023-04-07T08:04:32;24.55;;;17.58;;
49458;SDS011;35354;51.296;16.924;2023-04-07T08:06:57;26.33;;;19.48;;
49458;SDS011;35354;51.296;16.924;2023-04-07T08:09:22;25.02;;;18.15;;
49458;SDS011;35354;51.296;16.924;2023-04-07T08:11:48;23.00;;;17.30;;
49458;SDS011;35354;51.296;16.924;2023-04-07T08:14:15;21.35;;;16.13;;
49458;SDS011;35354;51.296;16.924;2023-04-07T08:16:40;21.40;;;16.63;;
49458;SDS011;35354;51.296;16.924;2023-04-07T08:19:06;22.50;;;17.73;;
49458;SDS011;35354;51.296;16.924;2023-04-07T08:21:31;23.30;;;17.98;;
49458;SDS011;35354;51.296;16.924;2023-04-07T08:23:56;24.50;;;17.45;;
49458;SDS011;35354;51.296;16.924;2023-04-07T08:26:22;22.48;;;17.83;;
49458;SDS011;35354;51.296;16.924;2023-04-07T08:28:48;22.85;;;17.00;;
49458;SDS011;35354;51.296;16.924;2023-04-07T08:31:15;25.88;;;18.27;;
49458;SDS011;35354;51.296;16.924;2023-04-07T08:33:41;22.17;;;17.20;;
49458;SDS011;35354;51.296;16.924;2023-04-07T08:36:06;22.35;;;17.23;;
49458;SDS011;35354;51.296;16.924;2023-04-07T08:38:31;25.30;;;19.35;;
49458;SDS011;35354;51.296;16.924;2023-04-07T08:41:02;21.42;;;17.48;;
49458;SDS011;35354;51.296;16.924;2023-04-07T08:43:31;66.72;;;19.95;;
49458;SDS011;35354;51.296;16.924;2023-04-07T08:45:59;23.52;;;16.73;;
49458;SDS011;35354;51.296;16.924;2023-04-07T08:48:26;20.83;;;14.82;;
49458;SDS011;35354;51.296;16.924;2023-04-07T08:53:25;24.90;;;18.85;;
49458;SDS011;35354;51.296;16.924;2023-04-07T08:55:57;26.58;;;18.98;;
49458;SDS011;35354;51.296;16.924;2023-04-07T08:58:23;26.48;;;19.35;;
49458;SDS011;35354;51.296;16.924;2023-04-07T09:00:48;28.60;;;20.00;;
49458;SDS011;35354;51.296;16.924;2023-04-07T09:03:15;23.58;;;17.67;;
49458;SDS011;35354;51.296;16.924;2023-04-07T09:05:42;21.55;;;16.02;;
49458;SDS011;35354;51.296;16.924;2023-04-07T09:08:10;21.27;;;16.48;;
49458;SDS011;35354;51.296;16.924;2023-04-07T09:10:35;21.63;;;16.73;;
49458;SDS011;35354;51.296;16.924;2023-04-07T09:13:01;20.13;;;14.18;;
49458;SDS011;35354;51.296;16.924;2023-04-07T09:15:29;23.45;;;16.70;;
49458;SDS011;35354;51.296;16.924;2023-04-07T09:17:56;22.42;;;16.42;;
49458;SDS011;35354;51.296;16.924;2023-04-07T09:20:22;21.95;;;15.82;;
49458;SDS011;35354;51.296;16.924;2023-04-07T09:22:47;20.63;;;15.95;;
49458;SDS011;35354;51.296;16.924;2023-04-07T09:25:18;22.92;;;18.10;;
49458;SDS011;35354;51.296;16.924;2023-04-07T09:27:56;20.92;;;16.13;;
49458;SDS011;35354;51.296;16.924;2023-04-07T09:30:26;24.30;;;17.90;;
49458;SDS011;35354;51.296;16.924;2023-04-07T09:32:53;25.30;;;18.98;;
49458;SDS011;35354;51.296;16.924;2023-04-07T09:35:19;27.42;;;19.42;;
49458;SDS011;35354;51.296;16.924;2023-04-07T09:38:06;23.65;;;17.92;;
49458;SDS011;35354;51.296;16.924;2023-04-07T09:40:32;31.88;;;20.77;;
49458;SDS011;35354;51.296;16.924;2023-04-07T09:42:58;27.95;;;19.00;;
49458;SDS011;35354;51.296;16.924;2023-04-07T09:45:24;26.67;;;18.77;;
49458;SDS011;35354;51.296;16.924;2023-04-07T09:47:53;25.23;;;17.42;;
49458;SDS011;35354;51.296;16.924;2023-04-07T09:50:31;24.38;;;17.50;;
49458;SDS011;35354;51.296;16.924;2023-04-07T09:52:59;24.17;;;18.52;;
49458;SDS011;35354;51.296;16.924;2023-04-07T09:55:25;24.75;;;18.02;;
49458;SDS011;35354;51.296;16.924;2023-04-07T09:57:53;22.15;;;16.45;;
49458;SDS011;35354;51.296;16.924;2023-04-07T10:00:22;28.98;;;19.42;;
49458;SDS011;35354;51.296;16.924;2023-04-07T10:02:48;23.67;;;18.17;;
49458;SDS011;35354;51.296;16.924;2023-04-07T10:05:15;24.70;;;20.27;;
49458;SDS011;35354;51.296;16.924;2023-04-07T10:07:41;28.13;;;19.10;;
49458;SDS011;35354;51.296;16.924;2023-04-07T10:10:07;27.40;;;17.83;;
49458;SDS011;35354;51.296;16.924;2023-04-07T10:12:33;28.08;;;19.25;;
49458;SDS011;35354;51.296;16.924;2023-04-07T10:15:00;26.45;;;18.45;;
49458;SDS011;35354;51.296;16.924;2023-04-07T10:17:26;37.05;;;23.35;;
49458;SDS011;35354;51.296;16.924;2023-04-07T10:19:53;29.60;;;19.80;;
49458;SDS011;35354;51.296;16.924;2023-04-07T10:22:20;27.90;;;19.60;;
49458;SDS011;35354;51.296;16.924;2023-04-07T10:27:48;31.05;;;21.83;;
49458;SDS011;35354;51.296;16.924;2023-04-07T10:30:21;30.05;;;22.00;;
49458;SDS011;35354;51.296;16.924;2023-04-07T10:35:15;25.38;;;18.05;;
49458;SDS011;35354;51.296;16.924;2023-04-07T10:37:46;26.30;;;20.13;;
49458;SDS011;35354;51.296;16.924;2023-04-07T10:40:34;29.90;;;18.70;;
49458;SDS011;35354;51.296;16.924;2023-04-07T10:43:00;34.05;;;21.55;;
49458;SDS011;35354;51.296;16.924;2023-04-07T10:48:09;32.40;;;21.50;;
49458;SDS011;35354;51.296;16.924;2023-04-07T10:50:36;34.30;;;23.13;;
49458;SDS011;35354;51.296;16.924;2023-04-07T10:53:05;31.85;;;21.23;;
49458;SDS011;35354;51.296;16.924;2023-04-07T10:55:38;28.10;;;20.88;;
49458;SDS011;35354;51.296;16.924;2023-04-07T10:58:23;34.03;;;22.15;;
49458;SDS011;35354;51.296;16.924;2023-04-07T11:03:40;38.17;;;24.83;;
49458;SDS011;35354;51.296;16.924;2023-04-07T11:06:15;33.50;;;23.73;;
49458;SDS011;35354;51.296;16.924;2023-04-07T11:08:42;37.00;;;25.88;;
49458;SDS011;35354;51.296;16.924;2023-04-07T11:11:09;38.67;;;25.83;;
49458;SDS011;35354;51.296;16.924;2023-04-07T11:13:46;33.15;;;23.92;;
49458;SDS011;35354;51.296;16.924;2023-04-07T11:16:13;36.67;;;25.65;;
49458;SDS011;35354;51.296;16.924;2023-04-07T11:18:39;39.00;;;26.00;;
49458;SDS011;35354;51.296;16.924;2023-04-07T11:21:05;35.33;;;25.80;;
49458;SDS011;35354;51.296;16.924;2023-04-07T11:23:38;39.15;;;25.63;;
49458;SDS011;35354;51.296;16.924;2023-04-07T11:26:09;31.88;;;22.65;;
49458;SDS011;35354;51.296;16.924;2023-04-07T11:28:43;30.42;;;22.35;;
49458;SDS011;35354;51.296;16.924;2023-04-07T11:31:10;32.08;;;22.75;;
49458;SDS011;35354;51.296;16.924;2023-04-07T11:33:36;28.00;;;21.25;;
49458;SDS011;35354;51.296;16.924;2023-04-07T11:36:04;30.42;;;21.73;;
49458;SDS011;35354;51.296;16.924;2023-04-07T11:38:34;29.25;;;21.15;;
49458;SDS011;35354;51.296;16.924;2023-04-07T11:41:14;30.63;;;22.88;;
49458;SDS011;35354;51.296;16.924;2023-04-07T11:43:40;38.15;;;24.98;;
49458;SDS011;35354;51.296;16.924;2023-04-07T11:46:12;32.88;;;24.98;;
49458;SDS011;35354;51.296;16.924;2023-04-07T11:48:40;33.15;;;24.70;;
49458;SDS011;35354;51.296;16.924;2023-04-07T11:51:14;29.10;;;20.48;;
49458;SDS011;35354;51.296;16.924;2023-04-07T11:53:53;30.80;;;22.27;;
49458;SDS011;35354;51.296;16.924;2023-04-07T11:58:54;31.63;;;22.48;;
49458;SDS011;35354;51.296;16.924;2023-04-07T12:01:20;37.00;;;24.52;;
49458;SDS011;35354;51.296;16.924;2023-04-07T12:04:01;37.90;;;25.00;;
49458;SDS011;35354;51.296;16.924;2023-04-07T12:06:28;33.75;;;24.20;;
49458;SDS011;35354;51.296;16.924;2023-04-07T12:09:07;39.65;;;25.80;;
49458;SDS011;35354;51.296;16.924;2023-04-07T12:11:48;31.40;;;23.25;;
49458;SDS011;35354;51.296;16.924;2023-04-07T12:14:14;32.13;;;23.38;;
49458;SDS011;35354;51.296;16.924;2023-04-07T12:16:39;33.60;;;23.42;;
49458;SDS011;35354;51.296;16.924;2023-04-07T12:19:06;29.33;;;20.10;;
49458;SDS011;35354;51.296;16.924;2023-04-07T12:21:32;30.48;;;21.30;;
49458;SDS011;35354;51.296;16.924;2023-04-07T12:23:57;30.05;;;21.58;;
49458;SDS011;35354;51.296;16.924;2023-04-07T12:26:22;29.38;;;20.55;;
49458;SDS011;35354;51.296;16.924;2023-04-07T12:28:49;29.85;;;22.27;;
49458;SDS011;35354;51.296;16.924;2023-04-07T12:31:15;33.15;;;22.85;;
49458;SDS011;35354;51.296;16.924;2023-04-07T12:33:40;32.28;;;23.20;;
49458;SDS011;35354;51.296;16.924;2023-04-07T12:36:06;31.83;;;22.55;;
49458;SDS011;35354;51.296;16.924;2023-04-07T12:38:32;30.10;;;22.20;;
49458;SDS011;35354;51.296;16.924;2023-04-07T12:40:58;33.35;;;24.40;;
49458;SDS011;35354;51.296;16.924;2023-04-07T12:43:27;48.50;;;30.15;;
49458;SDS011;35354;51.296;16.924;2023-04-07T12:45:54;33.70;;;23.92;;
49458;SDS011;35354;51.296;16.924;2023-04-07T12:48:19;28.10;;;20.65;;
49458;SDS011;35354;51.296;16.924;2023-04-07T12:50:45;28.27;;;21.45;;
49458;SDS011;35354;51.296;16.924;2023-04-07T12:53:10;34.15;;;24.63;;
49458;SDS011;35354;51.296;16.924;2023-04-07T12:55:36;31.95;;;22.60;;
49458;SDS011;35354;51.296;16.924;2023-04-07T12:58:01;30.65;;;22.65;;
49458;SDS011;35354;51.296;16.924;2023-04-07T13:00:27;27.60;;;20.77;;
49458;SDS011;35354;51.296;16.924;2023-04-07T13:02:52;35.10;;;23.13;;
49458;SDS011;35354;51.296;16.924;2023-04-07T13:05:18;35.30;;;25.60;;
49458;SDS011;35354;51.296;16.924;2023-04-07T13:07:44;28.92;;;22.17;;
49458;SDS011;35354;51.296;16.924;2023-04-07T13:10:09;28.50;;;21.17;;
49458;SDS011;35354;51.296;16.924;2023-04-07T13:12:35;25.77;;;19.02;;
49458;SDS011;35354;51.296;16.924;2023-04-07T13:15:01;24.52;;;19.13;;
49458;SDS011;35354;51.296;16.924;2023-04-07T13:17:27;24.65;;;18.67;;
49458;SDS011;35354;51.296;16.924;2023-04-07T13:19:53;26.48;;;19.15;;
49458;SDS011;35354;51.296;16.924;2023-04-07T13:22:19;28.15;;;19.80;;
49458;SDS011;35354;51.296;16.924;2023-04-07T13:24:45;26.30;;;19.70;;
49458;SDS011;35354;51.296;16.924;2023-04-07T13:27:11;26.25;;;19.25;;
49458;SDS011;35354;51.296;16.924;2023-04-07T13:29:39;30.27;;;21.10;;
49458;SDS011;35354;51.296;16.924;2023-04-07T13:32:05;30.15;;;19.35;;
49458;SDS011;35354;51.296;16.924;2023-04-07T13:34:31;25.90;;;19.05;;
49458;SDS011;35354;51.296;16.924;2023-04-07T13:36:56;27.70;;;19.67;;
49458;SDS011;35354;51.296;16.924;2023-04-07T13:39:22;26.90;;;19.92;;
49458;SDS011;35354;51.296;16.924;2023-04-07T13:41:47;27.08;;;19.50;;
49458;SDS011;35354;51.296;16.924;2023-04-07T13:44:12;26.70;;;19.58;;
49458;SDS011;35354;51.296;16.924;2023-04-07T13:46:38;28.00;;;20.35;;
49458;SDS011;35354;51.296;16.924;2023-04-07T13:49:03;28.05;;;18.92;;
49458;SDS011;35354;51.296;16.924;2023-04-07T13:51:28;26.63;;;20.67;;
49458;SDS011;35354;51.296;16.924;2023-04-07T13:53:54;25.50;;;19.25;;
49458;SDS011;35354;51.296;16.924;2023-04-07T13:56:19;25.00;;;18.48;;
49458;SDS011;35354;51.296;16.924;2023-04-07T13:58:46;24.95;;;18.65;;
49458;SDS011;35354;51.296;16.924;2023-04-07T14:01:11;24.73;;;17.42;;
49458;SDS011;35354;51.296;16.924;2023-04-07T14:03:37;22.48;;;17.17;;
49458;SDS011;35354;51.296;16.924;2023-04-07T14:06:03;20.40;;;16.00;;
49458;SDS011;35354;51.296;16.924;2023-04-07T14:08:28;24.17;;;17.60;;
49458;SDS011;35354;51.296;16.924;2023-04-07T14:10:53;25.63;;;19.00;;
49458;SDS011;35354;51.296;16.924;2023-04-07T14:13:19;25.52;;;19.63;;
49458;SDS011;35354;51.296;16.924;2023-04-07T14:15:45;25.77;;;19.33;;
49458;SDS011;35354;51.296;16.924;2023-04-07T14:18:13;26.27;;;19.00;;
49458;SDS011;35354;51.296;16.924;2023-04-07T14:20:39;27.63;;;19.00;;
49458;SDS011;35354;51.296;16.924;2023-04-07T14:23:05;26.73;;;18.85;;
49458;SDS011;35354;51.296;16.924;2023-04-07T14:25:31;21.35;;;16.70;;
49458;SDS011;35354;51.296;16.924;2023-04-07T14:27:57;21.90;;;16.67;;